Time;durP1;ratioP1;P1;durP2;ratioP2;P2;SDS_P1;SDS_P2;PMS_P1;PMS_P2;Temp;Humidity;BMP_temperature;BMP_pressure;BME280_temperature;BME280_humidity;BME280_pressure;Samples;Min_cycle;Max_cycle;Signal;HPM_P1;HPM_P2
2022/03/19 00:02:24;;;;;;;;;4.00;4.00;;;;;10.58;41.12;103306.56;5032895;28;45370;-66
2022/03/19 00:04:50;;;;;;;;;4.75;4.50;;;;;10.57;40.92;103299.56;5030783;28;45698;-64
2022/03/19 00:07:16;;;;;;;;;5.75;4.25;;;;;10.54;40.59;103304.91;5050430;28;45392;-64
2022/03/19 00:09:43;;;;;;;;;3.25;2.00;;;;;10.53;40.79;103297.88;5049828;28;45467;-65
2022/03/19 00:12:12;;;;;;;;;7.75;3.00;;;;;10.51;41.09;103295.28;5047802;28;45601;-66
2022/03/19 00:14:37;;;;;;;;;8.75;4.00;;;;;10.50;40.86;103303.19;5048955;28;45471;-67
2022/03/19 00:17:03;;;;;;;;;4.00;3.50;;;;;10.48;40.53;103297.97;5048153;28;45444;-61
2022/03/19 00:19:29;;;;;;;;;6.25;3.00;;;;;10.47;40.78;103300.63;5047989;28;45772;-65
2022/03/19 00:21:55;;;;;;;;;2.00;2.00;;;;;10.45;40.64;103302.44;5049629;28;45645;-66
2022/03/19 00:24:21;;;;;;;;;6.75;3.00;;;;;10.44;40.96;103300.69;5049384;28;45712;-64
2022/03/19 00:26:46;;;;;;;;;2.75;2.00;;;;;10.43;40.57;103304.22;5048479;28;45435;-65
2022/03/19 00:29:12;;;;;;;;;4.00;3.25;;;;;10.42;40.39;103308.59;5048053;28;45622;-70
2022/03/19 00:31:37;;;;;;;;;3.50;3.00;;;;;10.41;40.81;103306.00;5050638;28;45405;-68
2022/03/19 00:34:03;;;;;;;;;1.75;1.75;;;;;10.40;40.45;103306.91;5050251;28;45783;-68
2022/03/19 00:36:28;;;;;;;;;7.75;3.00;;;;;10.39;40.60;103306.03;5032833;28;45725;-65
2022/03/19 00:38:54;;;;;;;;;4.00;4.00;;;;;10.38;40.90;103300.78;5050743;28;45475;-72
2022/03/19 00:41:21;;;;;;;;;2.50;2.50;;;;;10.35;40.94;103307.00;5048010;28;45439;-72
2022/03/19 00:43:47;;;;;;;;;3.00;2.00;;;;;10.32;40.05;103307.03;5048632;28;45352;-68
2022/03/19 00:46:15;;;;;;;;;2.25;2.00;;;;;10.31;40.78;103307.94;5049491;28;45420;-65
2022/03/19 00:48:41;;;;;;;;;3.00;2.75;;;;;10.28;40.78;103306.22;5045050;28;45440;-65
2022/03/19 00:51:07;;;;;;;;;3.00;2.00;;;;;10.26;40.24;103299.22;5052676;28;45562;-65
2022/03/19 00:53:32;;;;;;;;;5.25;3.00;;;;;10.25;40.61;103294.84;5047276;28;45866;-67
2022/03/19 00:55:58;;;;;;;;;4.00;2.50;;;;;10.22;40.17;103290.53;5051505;28;46095;-66
2022/03/19 00:58:23;;;;;;;;;2.00;2.00;;;;;10.19;40.68;103294.91;5048055;28;45400;-66
2022/03/19 01:00:49;;;;;;;;;2.75;1.75;;;;;10.17;40.13;103291.44;5045422;28;45399;-67
2022/03/19 01:03:15;;;;;;;;;3.00;2.50;;;;;10.17;40.66;103291.44;5053261;28;45384;-66
2022/03/19 01:05:42;;;;;;;;;4.00;2.50;;;;;10.14;40.49;103294.16;5046036;28;45752;-66
2022/03/19 01:08:08;;;;;;;;;5.00;3.00;;;;;10.12;40.16;103283.66;5059724;28;45663;-67
2022/03/19 01:10:35;;;;;;;;;3.00;1.75;;;;;10.10;40.18;103280.13;5061314;28;45454;-67
2022/03/19 01:13:03;;;;;;;;;3.00;2.25;;;;;10.08;40.64;103279.31;5061472;28;45403;-67
2022/03/19 01:15:29;;;;;;;;;2.00;2.00;;;;;10.06;40.28;103291.63;5061743;28;45388;-67
2022/03/19 01:17:54;;;;;;;;;3.50;2.00;;;;;10.02;40.39;103272.38;5061561;28;45209;-67
2022/03/19 01:20:20;;;;;;;;;4.00;2.00;;;;;10.02;40.11;103277.63;5061554;28;45394;-67
2022/03/19 01:22:47;;;;;;;;;2.00;2.00;;;;;10.00;40.46;103266.25;5061873;28;45245;-67
2022/03/19 01:25:15;;;;;;;;;2.00;1.00;;;;;9.99;40.13;103276.81;5061601;28;45326;-67
2022/03/19 01:27:42;;;;;;;;;3.75;1.50;;;;;9.98;40.63;103280.34;5061241;28;45331;-67
2022/03/19 01:30:11;;;;;;;;;1.50;1.50;;;;;9.96;40.42;103277.75;5061373;28;45267;-66
2022/03/19 01:32:36;;;;;;;;;3.00;3.00;;;;;9.94;40.57;103274.25;5061532;28;45450;-67
2022/03/19 01:35:02;;;;;;;;;2.25;2.25;;;;;9.91;40.31;103276.09;5061413;28;45602;-67
2022/03/19 01:37:28;;;;;;;;;2.50;1.75;;;;;9.90;40.49;103274.34;5061506;28;45256;-67
2022/03/19 01:39:55;;;;;;;;;2.50;2.00;;;;;9.86;40.30;103270.88;5053535;28;45736;-67
2022/03/19 01:42:25;;;;;;;;;1.50;1.50;;;;;9.84;40.39;103267.41;5039941;28;45308;-67
2022/03/19 01:44:52;;;;;;;;;3.00;2.00;;;;;9.83;40.32;103268.31;5041266;28;46255;-67
2022/03/19 01:47:18;;;;;;;;;2.50;2.00;;;;;9.79;40.96;103264.88;5042856;28;45408;-67
2022/03/19 01:49:44;;;;;;;;;4.00;2.25;;;;;9.77;40.45;103266.63;5039881;28;45415;-68
2022/03/19 01:52:09;;;;;;;;;2.00;2.00;;;;;9.76;40.39;103262.25;5039990;28;45419;-67
2022/03/19 01:54:37;;;;;;;;;3.50;2.00;;;;;9.74;40.60;103256.16;5040916;28;46002;-67
2022/03/19 01:57:03;;;;;;;;;4.50;2.75;;;;;9.73;40.44;103257.06;5006453;28;45456;-67
2022/03/19 01:59:35;;;;;;;;;1.75;1.00;;;;;9.70;40.42;103249.19;5040892;28;45235;-67
2022/03/19 02:02:05;;;;;;;;;5.00;2.50;;;;;9.69;41.03;103246.59;5044603;28;45365;-67
2022/03/19 02:04:33;;;;;;;;;5.00;2.50;;;;;9.68;41.01;103242.22;5040829;28;46403;-67
2022/03/19 02:06:59;;;;;;;;;5.00;2.00;;;;;9.65;40.70;103240.50;5040903;28;45364;-67
2022/03/19 02:09:25;;;;;;;;;3.00;3.00;;;;;9.61;40.91;103249.34;5040798;28;45602;-67
2022/03/19 02:11:51;;;;;;;;;3.75;3.75;;;;;9.57;40.93;103246.78;5040941;28;45375;-67
2022/03/19 02:14:18;;;;;;;;;2.00;2.00;;;;;9.53;40.77;103248.56;5040771;28;46230;-67
2022/03/19 02:16:44;;;;;;;;;1.75;0.00;;;;;9.50;40.72;103252.13;5040787;28;45366;-67
2022/03/19 02:19:10;;;;;;;;;2.00;2.00;;;;;9.49;40.72;103239.88;5040720;28;45293;-67
2022/03/19 02:21:44;;;;;;;;;3.75;2.00;;;;;9.47;40.90;103246.91;5040957;28;45231;-67
2022/03/19 02:26:55;;;;;;;;;3.25;2.00;;;;;9.43;41.03;103236.47;5040334;28;45316;-67
2022/03/19 02:29:21;;;;;;;;;3.75;2.00;;;;;9.40;41.28;103225.97;5040737;28;45221;-67
2022/03/19 02:31:49;;;;;;;;;4.00;2.00;;;;;9.39;41.11;103222.47;5040813;28;45345;-67
2022/03/19 02:34:15;;;;;;;;;3.75;2.25;;;;;9.36;41.21;103225.16;5040576;28;46158;-67
2022/03/19 02:36:40;;;;;;;;;3.50;1.00;;;;;9.35;41.09;103214.66;5040432;28;45397;-68
2022/03/19 02:39:21;;;;;;;;;1.25;1.25;;;;;9.31;41.46;103210.31;5044109;28;45391;-67
2022/03/19 02:41:49;;;;;;;;;3.00;3.00;;;;;9.29;41.80;103220.00;5045199;28;45214;-68
2022/03/19 02:44:17;;;;;;;;;5.50;3.25;;;;;9.28;41.54;103211.25;5044130;28;46235;-67
2022/03/19 02:46:45;;;;;;;;;6.75;6.00;;;;;9.27;41.78;103208.63;5043921;28;45249;-67
2022/03/19 02:49:11;;;;;;;;;3.50;2.75;;;;;9.25;41.59;103213.06;5054445;28;45481;-68
2022/03/19 02:51:38;;;;;;;;;6.00;4.00;;;;;9.23;41.82;103221.81;5064298;28;45514;-68
2022/03/19 02:54:06;;;;;;;;;4.00;3.00;;;;;9.22;41.83;103217.44;5063446;28;46017;-68
2022/03/19 02:56:34;;;;;;;;;2.25;2.25;;;;;9.20;41.74;103211.34;5063560;28;45313;-67
2022/03/19 02:59:12;;;;;;;;;5.25;3.75;;;;;9.18;41.83;103207.00;5064075;28;45400;-67
2022/03/19 03:01:40;;;;;;;;;4.50;3.00;;;;;9.15;41.85;103207.03;5063837;28;45332;-67
2022/03/19 03:04:05;;;;;;;;;3.00;3.00;;;;;9.13;42.21;103209.69;5063954;28;45348;-67
2022/03/19 03:06:36;;;;;;;;;4.00;3.00;;;;;9.12;42.06;103207.94;5071139;28;45316;-66
2022/03/19 03:09:02;;;;;;;;;5.50;3.00;;;;;9.11;42.13;103207.97;5064773;28;45374;-68
2022/03/19 03:11:28;;;;;;;;;3.00;3.00;;;;;9.09;42.45;103213.28;5066697;28;45158;-68
2022/03/19 03:13:53;;;;;;;;;3.50;2.25;;;;;9.08;42.17;103208.88;5064695;28;45160;-67
2022/03/19 03:16:19;;;;;;;;;7.25;4.00;;;;;9.06;42.65;103205.41;5063868;28;45248;-68
2022/03/19 03:18:45;;;;;;;;;3.00;3.00;;;;;9.06;42.63;103204.53;5063639;28;45458;-69
2022/03/19 03:21:11;;;;;;;;;5.00;4.50;;;;;9.03;42.61;103202.81;5063883;28;45405;-68
2022/03/19 03:23:36;;;;;;;;;4.25;4.25;;;;;9.01;42.66;103191.47;5063576;28;45915;-67
2022/03/19 03:26:02;;;;;;;;;6.75;3.50;;;;;8.99;42.87;103206.38;5064062;28;45655;-68
2022/03/19 03:28:27;;;;;;;;;2.25;2.25;;;;;8.93;42.57;103196.81;5063325;28;45356;-68
2022/03/19 03:30:53;;;;;;;;;6.75;5.00;;;;;8.90;43.04;103203.88;5063544;28;45300;-67
2022/03/19 03:33:19;;;;;;;;;9.25;6.00;;;;;8.88;43.36;103192.50;5063334;28;45326;-68
2022/03/19 03:35:44;;;;;;;;;6.25;3.00;;;;;8.87;43.07;103194.28;5045322;28;45372;-68
2022/03/19 03:38:10;;;;;;;;;5.25;5.00;;;;;8.87;43.40;103198.66;5063403;28;45372;-67
2022/03/19 03:40:36;;;;;;;;;6.75;5.25;;;;;8.86;43.15;103189.03;5056113;28;45225;-67
2022/03/19 03:43:01;;;;;;;;;7.00;6.00;;;;;8.84;43.23;103191.66;5042812;28;45257;-68
2022/03/19 03:45:30;;;;;;;;;7.00;4.25;;;;;8.82;43.19;103187.31;5043258;28;45413;-68
2022/03/19 03:47:56;;;;;;;;;11.25;7.75;;;;;8.81;43.41;103183.81;5039485;28;45280;-68
2022/03/19 03:50:22;;;;;;;;;7.00;7.00;;;;;8.80;43.69;103175.97;5042972;28;45267;-68
2022/03/19 03:52:48;;;;;;;;;9.75;7.50;;;;;8.77;43.61;103174.25;5042768;28;46146;-67
2022/03/19 03:55:14;;;;;;;;;9.50;7.00;;;;;8.75;43.74;103169.88;5043124;28;45402;-68
2022/03/19 03:57:40;;;;;;;;;11.00;7.50;;;;;8.73;43.96;103175.16;5043106;28;45321;-66
2022/03/19 04:00:08;;;;;;;;;12.25;8.00;;;;;8.71;43.83;103176.97;5042874;28;45609;-68
2022/03/19 04:02:34;;;;;;;;;13.00;9.25;;;;;8.71;44.24;103176.97;5046264;28;45278;-67
2022/03/19 04:05:00;;;;;;;;;9.00;9.00;;;;;8.71;44.15;103176.09;5042896;28;45475;-67
2022/03/19 04:07:27;;;;;;;;;14.00;7.25;;;;;8.68;44.41;103167.34;5042939;28;45319;-67
2022/03/19 04:09:53;;;;;;;;;16.00;9.25;;;;;8.65;44.38;103164.75;5043215;28;45433;-67
2022/03/19 04:12:19;;;;;;;;;9.00;8.00;;;;;8.63;44.55;103171.78;5042223;28;45391;-67
2022/03/19 04:14:45;;;;;;;;;13.50;10.50;;;;;8.62;44.81;103171.81;5042838;28;45243;-68
2022/03/19 04:17:10;;;;;;;;;12.00;11.00;;;;;8.61;44.69;103160.44;5042235;28;45165;-68
2022/03/19 04:19:36;;;;;;;;;12.75;9.50;;;;;8.60;44.85;103165.69;5042709;28;45270;-67
2022/03/19 04:22:01;;;;;;;;;15.50;11.25;;;;;8.58;45.04;103167.47;5042294;28;46186;-68
2022/03/19 04:24:27;;;;;;;;;5.00;5.00;;;;;8.57;45.35;103171.84;5042646;28;45333;-67
2022/03/19 04:26:52;;;;;;;;;12.00;9.75;;;;;8.56;45.15;103171.88;5042331;28;45222;-67
2022/03/19 04:29:18;;;;;;;;;16.00;11.50;;;;;8.55;45.68;103173.66;5049318;28;45583;-67
2022/03/19 04:31:43;;;;;;;;;16.50;12.25;;;;;8.53;45.44;103170.19;5062366;28;46121;-68
2022/03/19 04:34:09;;;;;;;;;16.00;11.25;;;;;8.51;45.45;103171.06;5062575;28;45479;-67
2022/03/19 04:36:37;;;;;;;;;14.50;12.25;;;;;8.49;45.90;103165.81;5062738;28;45474;-68
2022/03/19 04:39:05;;;;;;;;;17.50;15.50;;;;;8.49;46.23;103163.19;5062627;28;45356;-68
2022/03/19 04:41:32;;;;;;;;;16.75;13.00;;;;;8.48;46.00;103173.72;5048298;28;45355;-67
2022/03/19 04:43:57;;;;;;;;;11.50;11.00;;;;;8.44;46.04;103162.38;5040757;28;45773;-68
2022/03/19 04:46:23;;;;;;;;;15.25;13.00;;;;;8.45;46.24;103161.47;5040696;28;45433;-68
2022/03/19 04:48:49;;;;;;;;;17.25;12.00;;;;;8.44;46.16;103159.75;5047781;28;45295;-68
2022/03/19 04:51:18;;;;;;;;;17.50;14.50;;;;;8.41;46.30;103158.94;5060546;28;46224;-67
2022/03/19 04:53:50;;;;;;;;;19.00;17.00;;;;;8.38;46.62;103163.34;5060382;28;45517;-68
2022/03/19 04:56:17;;;;;;;;;21.00;17.00;;;;;8.39;46.67;103162.44;5060629;28;45472;-67
2022/03/19 04:58:43;;;;;;;;;15.25;11.75;;;;;8.38;46.82;103157.22;5061725;28;45395;-67
2022/03/19 05:01:08;;;;;;;;;13.50;11.00;;;;;8.37;46.97;103158.97;5059711;28;46192;-68
2022/03/19 05:03:34;;;;;;;;;21.25;17.00;;;;;8.34;47.11;103153.72;5041687;28;45262;-68
2022/03/19 05:06:00;;;;;;;;;19.50;16.00;;;;;8.33;47.17;103151.97;5041718;28;45419;-67
2022/03/19 05:08:25;;;;;;;;;20.25;16.00;;;;;8.33;47.31;103157.22;5041745;28;45609;-69
2022/03/19 05:13:35;;;;;;;;;22.75;18.25;;;;;8.32;47.47;103159.88;5041729;28;45282;-68
2022/03/19 05:16:01;;;;;;;;;21.25;17.00;;;;;8.29;48.05;103158.13;5041617;28;45507;-68
2022/03/19 05:18:26;;;;;;;;;17.00;15.75;;;;;8.27;47.89;103164.28;5041618;28;45230;-67
2022/03/19 05:20:53;;;;;;;;;18.75;17.25;;;;;8.24;48.01;103162.59;5041517;28;46079;-68
2022/03/19 05:23:18;;;;;;;;;27.25;20.50;;;;;8.21;47.70;103157.34;5041502;28;45304;-67
2022/03/19 05:25:45;;;;;;;;;22.75;17.50;;;;;8.20;48.23;103160.00;5041697;28;45495;-68
2022/03/19 05:28:10;;;;;;;;;17.00;14.75;;;;;8.19;48.50;103163.50;5041433;28;45510;-68
2022/03/19 05:30:37;;;;;;;;;13.00;13.00;;;;;8.16;48.56;103164.41;5041360;28;46290;-68
2022/03/19 05:33:03;;;;;;;;;22.25;14.75;;;;;8.16;48.79;103166.19;5041534;28;45330;-68
2022/03/19 05:35:30;;;;;;;;;21.00;17.50;;;;;8.15;48.63;103167.94;5041408;28;45432;-68
2022/03/19 05:37:55;;;;;;;;;23.25;18.25;;;;;8.13;48.91;103167.06;5041490;28;45463;-68
2022/03/19 05:40:21;;;;;;;;;24.00;19.25;;;;;8.12;48.92;103166.19;5050736;28;45334;-69
2022/03/19 05:42:46;;;;;;;;;24.00;21.75;;;;;8.10;48.77;103164.47;5040934;28;45231;-68
2022/03/19 05:45:15;;;;;;;;;34.00;23.75;;;;;8.09;49.18;103168.00;5041287;28;45218;-68
2022/03/19 05:47:41;;;;;;;;;27.00;26.50;;;;;8.07;49.42;103164.50;5041069;28;45414;-68
2022/03/19 05:50:07;;;;;;;;;21.25;15.25;;;;;8.06;49.45;103162.78;5058780;28;45498;-68
2022/03/19 05:52:33;;;;;;;;;26.75;22.75;;;;;8.04;49.75;103168.03;5060966;28;45385;-68
2022/03/19 05:54:59;;;;;;;;;25.25;21.00;;;;;8.02;49.38;103174.19;5061069;28;45341;-68
2022/03/19 05:57:24;;;;;;;;;26.50;23.00;;;;;8.02;49.92;103175.03;5061226;28;45448;-68
2022/03/19 05:59:49;;;;;;;;;34.50;21.75;;;;;8.03;49.78;103171.53;5060667;28;45296;-68
2022/03/19 06:02:15;;;;;;;;;27.50;22.75;;;;;8.00;50.03;103178.59;5049724;28;45222;-68
2022/03/19 06:04:40;;;;;;;;;28.50;24.00;;;;;7.97;50.04;103168.97;5040931;28;45178;-68
2022/03/19 06:07:06;;;;;;;;;28.25;21.75;;;;;7.96;50.34;103179.47;5041057;28;45467;-68
2022/03/19 06:09:31;;;;;;;;;28.50;26.50;;;;;7.97;50.38;103178.59;5040666;28;45357;-68
2022/03/19 06:11:57;;;;;;;;;35.00;24.50;;;;;7.96;50.57;103163.72;5040712;28;45235;-68
2022/03/19 06:14:23;;;;;;;;;36.75;27.25;;;;;7.96;51.09;103159.34;5040640;28;45239;-68
2022/03/19 06:16:49;;;;;;;;;43.50;30.50;;;;;7.95;50.84;103173.34;5039813;28;45480;-68
2022/03/19 06:19:15;;;;;;;;;29.00;20.25;;;;;7.98;50.92;103177.69;5040115;28;46182;-68
2022/03/19 06:21:42;;;;;;;;;34.50;30.50;;;;;7.99;50.86;103179.47;5040692;28;45382;-68
2022/03/19 06:24:09;;;;;;;;;34.75;28.75;;;;;8.01;50.84;103175.06;5041139;28;45285;-68
2022/03/19 06:26:36;;;;;;;;;35.00;25.00;;;;;8.05;51.13;103180.25;5042116;28;45233;-68
2022/03/19 06:29:02;;;;;;;;;30.75;26.25;;;;;8.07;51.22;103186.38;5041420;28;45298;-68
2022/03/19 06:31:28;;;;;;;;;39.50;27.50;;;;;8.10;51.21;103174.97;5041155;28;45297;-68
2022/03/19 06:33:54;;;;;;;;;29.50;23.50;;;;;8.14;51.08;103181.94;5040322;28;45269;-68
2022/03/19 06:39:04;;;;;;;;;39.50;29.25;;;;;8.27;51.20;103182.66;5047425;28;45348;-68
2022/03/19 06:41:29;;;;;;;;;41.50;33.25;;;;;8.36;51.29;103182.59;5046369;28;45503;-68
2022/03/19 06:43:55;;;;;;;;;41.75;32.00;;;;;8.47;51.27;103178.13;5040484;28;45387;-68
2022/03/19 06:46:21;;;;;;;;;28.25;24.50;;;;;8.53;51.17;103177.16;5040305;28;45319;-68
2022/03/19 06:48:50;;;;;;;;;45.00;27.25;;;;;8.62;51.41;103169.19;5047252;28;46520;-69
2022/03/19 06:51:18;;;;;;;;;44.75;38.75;;;;;8.70;51.20;103172.59;5060333;28;45544;-70
2022/03/19 06:53:47;;;;;;;;;44.50;36.00;;;;;8.73;51.25;103166.41;5060759;28;45311;-68
2022/03/19 06:56:13;;;;;;;;;54.00;36.75;;;;;8.77;51.18;103181.25;5060535;28;45407;-69
2022/03/19 06:58:41;;;;;;;;;52.00;40.50;;;;;8.79;51.60;103171.59;5060014;28;45616;-69
2022/03/19 07:01:09;;;;;;;;;50.25;39.00;;;;;8.86;51.11;103168.88;5052464;28;45754;-65
2022/03/19 07:03:35;;;;;;;;;48.50;40.25;;;;;8.88;51.16;103164.47;5039828;28;45613;-67
2022/03/19 07:06:01;;;;;;;;;52.75;37.25;;;;;8.91;51.29;103166.16;5047495;28;45368;-67
2022/03/19 07:08:26;;;;;;;;;52.75;42.25;;;;;8.97;51.37;103170.47;5055689;28;46024;-67
2022/03/19 07:10:52;;;;;;;;;54.00;39.25;;;;;9.00;51.23;103168.66;5053676;28;45363;-66
2022/03/19 07:13:18;;;;;;;;;53.25;40.00;;;;;9.05;51.56;103168.63;5048394;28;45541;-68
2022/03/19 07:15:44;;;;;;;;;43.25;38.25;;;;;9.13;51.52;103166.75;5053021;28;45379;-67
2022/03/19 07:18:09;;;;;;;;;54.25;43.25;;;;;9.21;51.49;103172.78;5046471;28;45604;-68
2022/03/19 07:20:35;;;;;;;;;55.50;39.00;;;;;9.30;50.98;103167.38;5055916;28;45540;-68
2022/03/19 07:23:05;;;;;;;;;50.75;40.75;;;;;9.38;51.32;103168.13;5044766;28;45539;-69
2022/03/19 07:25:31;;;;;;;;;52.00;39.75;;;;;9.43;50.94;103165.44;5047794;28;45370;-67
2022/03/19 07:27:59;;;;;;;;;53.00;42.00;;;;;9.45;50.94;103167.13;5049321;28;45320;-66
2022/03/19 07:30:26;;;;;;;;;53.75;41.75;;;;;9.48;50.94;103166.25;5051893;28;45319;-70
2022/03/19 07:32:52;;;;;;;;;59.00;42.00;;;;;9.52;50.95;103166.16;5052080;28;45515;-68
2022/03/19 07:35:17;;;;;;;;;52.25;41.25;;;;;9.57;51.31;103162.59;5052156;28;45290;-67
2022/03/19 07:37:44;;;;;;;;;61.50;47.25;;;;;9.64;50.91;103173.00;5051998;28;45382;-66
2022/03/19 07:40:15;;;;;;;;;52.00;41.50;;;;;9.68;51.14;103166.75;5050336;28;45524;-67
2022/03/19 07:42:42;;;;;;;;;60.50;48.00;;;;;9.70;50.65;103172.84;5051852;28;45455;-69
2022/03/19 07:45:08;;;;;;;;;63.50;45.75;;;;;9.71;51.12;103174.59;5052835;28;45495;-64
2022/03/19 07:47:34;;;;;;;;;49.00;38.75;;;;;9.74;50.89;103166.66;5050354;28;45514;-64
2022/03/19 07:50:01;;;;;;;;;53.50;42.25;;;;;9.79;50.84;103171.84;5052478;28;45312;-63
2022/03/19 07:52:27;;;;;;;;;62.25;46.50;;;;;9.81;51.13;103167.44;5052580;28;45444;-63
2022/03/19 07:54:56;;;;;;;;;52.50;42.25;;;;;9.86;51.16;103169.97;5051554;28;45440;-63
2022/03/19 07:57:22;;;;;;;;;57.00;43.25;;;;;9.88;50.90;103160.31;5052767;28;45183;-64
2022/03/19 07:59:49;;;;;;;;;62.00;46.75;;;;;9.95;51.20;103170.69;5051918;28;45292;-64
2022/03/19 08:02:14;;;;;;;;;63.75;49.25;;;;;9.98;51.15;103170.63;5053438;28;45379;-64
2022/03/19 08:04:40;;;;;;;;;63.50;45.50;;;;;10.01;51.12;103162.66;5048310;28;45502;-64
2022/03/19 08:07:06;;;;;;;;;57.50;42.00;;;;;10.05;51.30;103167.00;5048843;28;46756;-64
2022/03/19 08:09:31;;;;;;;;;64.75;47.00;;;;;10.13;51.01;103163.38;5049960;28;45495;-64
2022/03/19 08:11:58;;;;;;;;;60.00;46.25;;;;;10.20;51.21;103165.00;5050281;28;45434;-64
2022/03/19 08:14:24;;;;;;;;;54.75;42.75;;;;;10.25;50.95;103171.91;5049913;28;45660;-64
2022/03/19 08:16:49;;;;;;;;;59.50;45.00;;;;;10.28;50.66;103174.50;5049090;28;46494;-64
2022/03/19 08:19:15;;;;;;;;;59.75;44.75;;;;;10.34;50.58;103161.19;5050627;28;45484;-63
2022/03/19 08:21:45;;;;;;;;;62.00;47.00;;;;;10.43;50.41;103162.81;5052184;28;45361;-64
2022/03/19 08:24:11;;;;;;;;;57.50;47.50;;;;;10.53;50.80;103163.50;5051465;28;45443;-64
2022/03/19 08:26:38;;;;;;;;;60.75;47.00;;;;;10.61;50.90;103151.03;5050480;28;45345;-64
2022/03/19 08:29:04;;;;;;;;;63.25;49.25;;;;;10.69;50.10;103150.84;5050907;28;45447;-65
2022/03/19 08:31:31;;;;;;;;;63.00;47.75;;;;;10.75;50.13;103153.38;5051133;28;45721;-64
2022/03/19 08:33:56;;;;;;;;;55.00;41.75;;;;;10.84;50.34;103155.81;5051613;28;45395;-68
2022/03/19 08:36:22;;;;;;;;;69.50;51.00;;;;;10.88;50.26;103147.78;5051242;28;45245;-64
2022/03/19 08:41:32;;;;;;;;;58.50;48.00;;;;;10.95;50.10;103143.25;5050162;28;45415;-64
2022/03/19 08:43:58;;;;;;;;;61.25;47.25;;;;;10.97;49.47;103146.69;5051559;28;45491;-64
2022/03/19 08:46:25;;;;;;;;;60.75;48.75;;;;;11.05;49.64;103144.75;5051864;28;45649;-64
2022/03/19 08:48:51;;;;;;;;;60.00;45.50;;;;;11.14;49.87;103141.94;5046810;28;45506;-64
2022/03/19 08:54:03;;;;;;;;;62.25;49.50;;;;;11.35;49.32;103134.41;5051004;28;45569;-64
2022/03/19 08:56:29;;;;;;;;;64.75;48.00;;;;;11.38;49.41;103142.25;5049293;28;45466;-64
2022/03/19 08:58:55;;;;;;;;;67.25;50.75;;;;;11.39;49.13;103144.00;5050586;28;45620;-64
2022/03/19 09:01:20;;;;;;;;;61.50;47.25;;;;;11.45;49.25;103138.53;5049783;28;45365;-66
2022/03/19 09:03:46;;;;;;;;;61.50;47.75;;;;;11.55;49.01;103140.06;5053852;28;45444;-65
2022/03/19 09:06:14;;;;;;;;;68.75;50.50;;;;;11.60;49.09;103137.28;5049088;28;45182;-65
2022/03/19 09:08:44;;;;;;;;;68.25;52.75;;;;;11.67;49.04;103138.88;5050264;28;45406;-65
2022/03/19 09:11:10;;;;;;;;;66.00;48.00;;;;;11.72;48.56;103137.00;5049882;28;45605;-65
2022/03/19 09:13:36;;;;;;;;;60.00;46.50;;;;;11.78;48.74;103143.91;5052259;28;45555;-64
2022/03/19 09:16:03;;;;;;;;;59.75;44.75;;;;;11.82;48.61;103132.38;5048795;28;45350;-64
2022/03/19 09:18:29;;;;;;;;;62.25;50.50;;;;;11.91;48.47;103135.63;5049712;28;45436;-64
2022/03/19 09:20:54;;;;;;;;;63.75;49.75;;;;;11.99;48.36;103131.00;5049909;28;45381;-64
2022/03/19 09:23:20;;;;;;;;;68.75;49.50;;;;;12.07;48.06;103127.28;5051944;28;45853;-64
2022/03/19 09:25:45;;;;;;;;;65.25;49.00;;;;;12.16;47.89;103130.53;5048779;28;45873;-64
2022/03/19 09:28:11;;;;;;;;;62.00;50.25;;;;;12.25;47.68;103121.53;5032062;28;45506;-64
2022/03/19 09:30:37;;;;;;;;;65.25;50.50;;;;;12.31;47.57;103123.97;5038122;28;45423;-62
2022/03/19 09:33:02;;;;;;;;;64.75;49.50;;;;;12.37;47.56;103115.00;5043813;28;45519;-61
2022/03/19 09:35:28;;;;;;;;;64.00;48.00;;;;;12.45;47.28;103115.66;5050052;28;46072;-64
2022/03/19 09:37:53;;;;;;;;;63.00;50.75;;;;;12.53;47.29;103114.50;5050225;28;45292;-60
2022/03/19 09:40:19;;;;;;;;;70.25;53.00;;;;;12.62;47.13;103110.72;5050268;28;45497;-61
2022/03/19 09:42:50;;;;;;;;;59.25;46.25;;;;;12.75;46.79;103112.09;5049405;28;45327;-61
2022/03/19 09:45:19;;;;;;;;;68.00;50.75;;;;;12.77;46.10;103104.09;5050054;28;46054;-63
2022/03/19 09:47:45;;;;;;;;;65.25;49.25;;;;;12.81;45.91;103108.41;5050055;28;45336;-61
2022/03/19 09:50:11;;;;;;;;;62.25;46.50;;;;;12.83;45.54;103109.22;5046764;28;45385;-63
2022/03/19 09:52:37;;;;;;;;;59.75;47.75;;;;;12.89;45.10;103100.22;5051805;28;45451;-62
2022/03/19 09:55:03;;;;;;;;;62.25;50.00;;;;;12.96;45.03;103096.50;5050107;28;46021;-66
2022/03/19 09:57:29;;;;;;;;;59.50;45.50;;;;;13.01;44.83;103097.19;5049344;28;45343;-66
2022/03/19 09:59:54;;;;;;;;;53.50;42.25;;;;;13.10;44.85;103089.81;5049907;28;45569;-65
2022/03/19 10:02:20;;;;;;;;;59.00;48.00;;;;;13.22;44.56;103082.44;5049053;28;45904;-69
2022/03/19 10:04:50;;;;;;;;;57.00;44.50;;;;;13.29;44.26;103089.25;5049919;28;45349;-69
2022/03/19 10:10:07;;;;;;;;;58.00;45.00;;;;;13.42;43.90;103087.91;5050353;28;45462;-58
2022/03/19 10:12:33;;;;;;;;;64.25;45.00;;;;;13.46;43.28;103075.47;5046625;28;45532;-58
2022/03/19 10:15:00;;;;;;;;;55.75;45.50;;;;;13.54;43.58;103076.94;5051203;28;45557;-58
2022/03/19 10:17:38;;;;;;;;;59.00;45.00;;;;;13.63;43.12;103068.66;5051366;28;45415;-57
2022/03/19 10:20:12;;;;;;;;;55.75;42.50;;;;;13.71;42.97;103065.75;5048922;28;45499;-58
2022/03/19 10:22:45;;;;;;;;;43.25;38.75;;;;;13.82;43.01;103065.34;5029171;28;45261;-59
2022/03/19 10:25:12;;;;;;;;;60.25;44.50;;;;;13.86;42.58;103059.91;5049067;28;45284;-60
2022/03/19 10:27:40;;;;;;;;;62.50;44.50;;;;;13.88;42.15;103057.19;5048797;28;45213;-58
2022/03/19 10:30:07;;;;;;;;;63.25;47.00;;;;;13.92;42.08;103048.22;5050699;28;45273;-60
2022/03/19 10:32:34;;;;;;;;;55.00;43.00;;;;;13.96;41.78;103045.38;5055763;28;45476;-59
2022/03/19 10:35:01;;;;;;;;;58.75;45.25;;;;;14.03;42.12;103056.63;5050439;28;45540;-55
2022/03/19 10:37:35;;;;;;;;;58.25;45.75;;;;;14.12;41.24;103047.47;5051328;28;45464;-57
2022/03/19 10:40:02;;;;;;;;;59.25;47.50;;;;;14.15;41.10;103052.69;5050818;28;45265;-60
2022/03/19 10:42:38;;;;;;;;;62.00;46.50;;;;;14.18;40.94;103049.91;5049492;28;45245;-57
2022/03/19 10:45:08;;;;;;;;;59.00;44.75;;;;;14.19;40.80;103048.97;5056536;28;45652;-58
2022/03/19 10:47:47;;;;;;;;;56.00;41.00;;;;;14.18;40.37;103036.66;5050987;28;45317;-62
2022/03/19 10:50:24;;;;;;;;;53.00;40.25;;;;;14.25;40.39;103032.84;5048736;28;45186;-61
2022/03/19 10:52:51;;;;;;;;;56.75;44.00;;;;;14.33;40.38;103025.47;5031397;28;45313;-60
2022/03/19 10:55:17;;;;;;;;;51.00;39.50;;;;;14.38;40.32;103028.81;5049375;28;46109;-61
2022/03/19 10:57:45;;;;;;;;;50.50;37.75;;;;;14.45;40.09;103046.22;5050356;28;45510;-60
2022/03/19 11:00:12;;;;;;;;;59.25;45.00;;;;;14.52;39.61;103038.88;5048599;28;45428;-59
2022/03/19 11:02:44;;;;;;;;;56.50;42.50;;;;;14.52;39.47;103037.09;5048823;28;45444;-65
2022/03/19 11:05:11;;;;;;;;;56.50;45.50;;;;;14.55;39.16;103035.28;5051822;28;46324;-64
2022/03/19 11:07:42;;;;;;;;;54.00;42.75;;;;;14.58;38.97;103013.94;5053388;28;45255;-64
2022/03/19 11:10:08;;;;;;;;;53.00;41.75;;;;;14.64;38.58;103019.84;5052454;28;45430;-64
2022/03/19 11:12:35;;;;;;;;;54.00;44.00;;;;;14.68;38.92;103012.63;5052881;28;45403;-68
2022/03/19 11:15:04;;;;;;;;;54.75;41.25;;;;;14.72;38.79;103008.94;5053049;28;45491;-67
2022/03/19 11:17:32;;;;;;;;;56.00;45.00;;;;;14.81;38.63;103011.22;5054174;28;45418;-70
2022/03/19 11:20:05;;;;;;;;;56.00;42.25;;;;;14.88;38.69;103006.53;5051613;28;45629;-67
2022/03/19 11:22:39;;;;;;;;;53.75;43.00;;;;;14.95;38.38;103005.34;5052081;28;45336;-64
2022/03/19 11:25:26;;;;;;;;;56.50;43.00;;;;;15.00;37.72;102998.91;5052908;28;45233;-66
2022/03/19 11:27:59;;;;;;;;;51.00;40.25;;;;;15.03;37.34;103001.44;5052433;28;45450;-66
2022/03/19 11:30:36;;;;;;;;;49.00;38.75;;;;;15.08;37.32;102990.59;5050590;28;45550;-72
2022/03/19 11:33:18;;;;;;;;;48.00;38.75;;;;;15.13;37.27;102985.97;5051879;28;45483;-68
2022/03/19 11:36:06;;;;;;;;;47.25;36.50;;;;;15.22;37.02;102977.63;5050689;28;45418;-66